• Join FlightAware (Why Join?)
  • Login
  • US Flag 
06:35AM EDT


 

Airport Tracker/Info


-or-


 

Live Flight TrackerFlight Track Log ✈ AFR1496 ✈ 29-Apr-2012 ✈ LFPG / CDG - GMMN / CMN

Flight Track Log - Related Links

Times and Time Zones

All times are in EDT time to prevent confusion due to time zone crossing. See the AFR1496 flight status page for this flight to view local times or setup timezone preferences in your user account.

Time Position Orientation Groundspeed Altitude Reporting Facility
EDT Latitude Longitude Course Direction KTS MPH feet Rate Location/Type
01:01PM 48.7482 2.3232 209° Southwest  Level Estimated
01:02PM 48.6859 2.2702 209° Southwest  Level Estimated
01:03PM 48.6236 2.2173 209° Southwest  Level Estimated
01:04PM 48.5612 2.1646 209° Southwest  Level Estimated
01:05PM 48.4989 2.1119 209° Southwest  Level Estimated
01:06PM 48.4365 2.0594 209° Southwest  Level Estimated
01:07PM 48.3740 2.0071 209° Southwest  Level Estimated
01:08PM 48.3116 1.9548 209° Southwest  Level Estimated
01:09PM 48.2491 1.9027 209° Southwest  Level Estimated
01:10PM 48.1866 1.8507 209° Southwest  Level Estimated
01:11PM 48.1241 1.7989 209° Southwest  Level Estimated
01:12PM 48.0615 1.7471 209° Southwest  Level Estimated
01:13PM 47.9990 1.6955 209° Southwest  Level Estimated
01:14PM 47.9364 1.6441 209° Southwest  Level Estimated
01:15PM 47.8737 1.5927 209° Southwest  Level Estimated
01:16PM 47.8111 1.5415 209° Southwest  Level Estimated
01:17PM 47.7484 1.4904 209° Southwest  Level Estimated
01:18PM 47.6858 1.4394 209° Southwest  Level Estimated
01:19PM 47.6231 1.3885 209° Southwest  Level Estimated
01:20PM 47.5603 1.3378 209° Southwest  Level Estimated
01:21PM 47.4976 1.2872 209° Southwest  Level Estimated
01:22PM 47.4348 1.2367 209° Southwest  Level Estimated
01:23PM 47.3720 1.1863 208° Southwest  Level Estimated
01:24PM 47.3092 1.1360 208° Southwest  Level Estimated
01:25PM 47.2248 1.0687 208° Southwest  Level Estimated
01:26PM 47.1404 1.0017 208° Southwest  Level Estimated
01:27PM 47.0560 0.9348 208° Southwest  Level Estimated
01:28PM 46.9715 0.8681 208° Southwest  Level Estimated
01:29PM 46.8869 0.8017 208° Southwest  Level Estimated
01:30PM 46.8024 0.7355 208° Southwest  Level Estimated
01:31PM 46.7178 0.6695 208° Southwest  Level Estimated
01:32PM 46.6331 0.6036 208° Southwest  Level Estimated
01:33PM 46.5485 0.5380 208° Southwest  Level Estimated
01:34PM 46.4637 0.4726 208° Southwest  Level Estimated
01:35PM 46.3790 0.4074 208° Southwest  Level Estimated
01:36PM 46.2942 0.3424 208° Southwest  Level Estimated
01:37PM 46.2094 0.2776 208° Southwest  Level Estimated
01:38PM 46.1245 0.2130 208° Southwest  Level Estimated
01:39PM 46.0396 0.1486 208° Southwest  Level Estimated
01:40PM 45.9547 0.0844 208° Southwest  Level Estimated
01:41PM 45.8697 0.0204 208° Southwest  Level Estimated
01:42PM 45.7847 -0.0434 208° Southwest  Level Estimated
01:43PM 45.6997 -0.1070 208° Southwest  Level Estimated
01:44PM 45.6146 -0.1704 207° Southwest  Level Estimated
01:45PM 45.5295 -0.2336 207° Southwest  Level Estimated
01:46PM 45.4444 -0.2967 207° Southwest  Level Estimated
01:47PM 45.3592 -0.3595 207° Southwest  Level Estimated
01:48PM 45.2739 -0.4222 207° Southwest  Level Estimated
01:49PM 45.1887 -0.4847 207° Southwest  Level Estimated
01:50PM 45.1034 -0.5469 207° Southwest  Level Estimated
01:51PM 45.0181 -0.6090 207° Southwest  Level Estimated
01:52PM 44.9328 -0.6709 207° Southwest  Level Estimated
01:53PM 44.8474 -0.7327 207° Southwest  Level Estimated
01:54PM 44.7620 -0.7942 207° Southwest  Level Estimated
01:55PM 44.6765 -0.8556 207° Southwest  Level Estimated
01:56PM 44.5910 -0.9168 207° Southwest  Level Estimated
01:57PM 44.5055 -0.9778 207° Southwest  Level Estimated
01:58PM 44.4199 -1.0386 207° Southwest  Level Estimated
01:59PM 44.3344 -1.0993 207° Southwest  Level Estimated
02:00PM 44.2488 -1.1597 207° Southwest  Level Estimated
02:01PM 44.1631 -1.2200 207° Southwest  Level Estimated
02:02PM 44.0774 -1.2802 207° Southwest  Level Estimated
02:03PM 43.9917 -1.3401 207° Southwest  Level Estimated
02:04PM 43.9060 -1.3999 207° Southwest  Level Estimated
02:05PM 43.8202 -1.4595 207° Southwest  Level Estimated
02:06PM 43.7344 -1.5189 207° Southwest  Level Estimated
02:07PM 43.6486 -1.5782 207° Southwest  Level Estimated
02:08PM 43.5627 -1.6373 206° Southwest  Level Estimated
02:09PM 43.4768 -1.6962 206° Southwest  Level Estimated
02:10PM 43.3909 -1.7549 206° Southwest  Level Estimated
02:11PM 43.3050 -1.8135 206° Southwest  Level Estimated
02:12PM 43.2190 -1.8720 206° Southwest  Level Estimated
02:13PM 43.1330 -1.9302 206° Southwest  Level Estimated
02:14PM 43.0470 -1.9883 206° Southwest  Level Estimated
02:15PM 42.9609 -2.0462 206° Southwest  Level Estimated
02:16PM 42.8748 -2.1040 206° Southwest  Level Estimated
02:17PM 42.7887 -2.1616 206° Southwest  Level Estimated
02:18PM 42.7025 -2.2191 206° Southwest  Level Estimated
02:19PM 42.6163 -2.2764 206° Southwest  Level Estimated
02:20PM 42.5301 -2.3335 206° Southwest  Level Estimated
02:21PM 42.4439 -2.3905 206° Southwest  Level Estimated
02:22PM 42.3576 -2.4473 206° Southwest  Level Estimated
02:23PM 42.2713 -2.5040 206° Southwest  Level Estimated
02:24PM 42.1850 -2.5605 206° Southwest  Level Estimated
02:25PM 42.0986 -2.6168 206° Southwest  Level Estimated
02:26PM 42.0122 -2.6730 206° Southwest  Level Estimated
02:27PM 41.9258 -2.7291 206° Southwest  Level Estimated
02:28PM 41.8394 -2.7850 206° Southwest  Level Estimated
02:29PM 41.7529 -2.8407 206° Southwest  Level Estimated
02:30PM 41.6664 -2.8963 206° Southwest  Level Estimated
02:31PM 41.5799 -2.9518 206° Southwest  Level Estimated
02:32PM 41.4934 -3.0071 206° Southwest  Level Estimated
02:33PM 41.4068 -3.0622 206° Southwest  Level Estimated
02:34PM 41.3202 -3.1172 205° Southwest  Level Estimated
02:35PM 41.2336 -3.1721 205° Southwest  Level Estimated
02:36PM 41.1469 -3.2268 205° Southwest  Level Estimated
02:37PM 41.0603 -3.2813 205° Southwest  Level Estimated
02:38PM 40.9736 -3.3358 205° Southwest  Level Estimated
02:39PM 40.8869 -3.3900 205° Southwest  Level Estimated
02:40PM 40.8001 -3.4442 205° Southwest  Level Estimated
02:41PM 40.7133 -3.4982 205° Southwest  Level Estimated
02:42PM 40.6265 -3.5521 205° Southwest  Level Estimated
02:43PM 40.5397 -3.6058 205° Southwest  Level Estimated
02:44PM 40.4529 -3.6593 205° Southwest  Level Estimated
02:45PM 40.3660 -3.7128 205° Southwest  Level Estimated
02:46PM 40.2791 -3.7661 205° Southwest  Level Estimated
02:47PM 40.1922 -3.8193 205° Southwest  Level Estimated
02:48PM 40.1052 -3.8723 205° Southwest  Level Estimated
02:49PM 40.0182 -3.9252 205° Southwest  Level Estimated
02:50PM 39.9313 -3.9779 205° Southwest  Level Estimated
02:51PM 39.8442 -4.0306 205° Southwest  Level Estimated
02:52PM 39.7572 -4.0831 205° Southwest  Level Estimated
02:53PM 39.6701 -4.1354 205° Southwest  Level Estimated
02:54PM 39.5830 -4.1877 205° Southwest  Level Estimated
02:55PM 39.4959 -4.2397 205° Southwest  Level Estimated
02:56PM 39.4088 -4.2917 205° Southwest  Level Estimated
02:57PM 39.3216 -4.3436 205° Southwest  Level Estimated
02:58PM 39.2344 -4.3953 205° Southwest  Level Estimated
02:59PM 39.1472 -4.4468 205° Southwest  Level Estimated
03:00PM 39.0600 -4.4983 205° Southwest  Level Estimated
03:01PM 38.9728 -4.5496 205° Southwest  Level Estimated
03:02PM 38.8855 -4.6008 205° Southwest  Level Estimated
03:03PM 38.7982 -4.6519 204° Southwest  Level Estimated
03:04PM 38.7109 -4.7028 204° Southwest  Level Estimated
03:05PM 38.6235 -4.7537 204° Southwest  Level Estimated
03:06PM 38.5362 -4.8044 204° Southwest  Level Estimated
03:07PM 38.4488 -4.8549 204° Southwest  Level Estimated
03:08PM 38.3614 -4.9054 204° Southwest  Level Estimated
03:09PM 38.2739 -4.9557 204° Southwest  Level Estimated
03:10PM 38.1865 -5.0059 204° Southwest  Level Estimated
03:11PM 38.0990 -5.0560 204° Southwest  Level Estimated
03:12PM 38.0115 -5.1060 204° Southwest  Level Estimated
03:13PM 37.9240 -5.1558 204° Southwest  Level Estimated
03:14PM 37.8365 -5.2056 204° Southwest  Level Estimated
03:15PM 37.7489 -5.2552 204° Southwest  Level Estimated
03:16PM 37.6614 -5.3047 204° Southwest  Level Estimated
03:17PM 37.5738 -5.3541 204° Southwest  Level Estimated
03:18PM 37.4861 -5.4033 204° Southwest  Level Estimated
03:19PM 37.3985 -5.4525 204° Southwest  Level Estimated
03:20PM 37.3108 -5.5015 204° Southwest  Level Estimated
03:21PM 37.2232 -5.5504 204° Southwest  Level Estimated
03:22PM 37.1355 -5.5993 204° Southwest  Level Estimated
03:23PM 37.0477 -5.6480 204° Southwest  Level Estimated
03:24PM 36.9600 -5.6965 204° Southwest  Level Estimated
03:25PM 36.8722 -5.7450 204° Southwest  Level Estimated
03:26PM 36.7845 -5.7934 204° Southwest  Level Estimated
03:27PM 36.6967 -5.8416 204° Southwest  Level Estimated
03:28PM 36.6089 -5.8898 204° Southwest  Level Estimated
03:29PM 36.5210 -5.9378 204° Southwest  Level Estimated
03:30PM 36.4332 -5.9857 204° Southwest  Level Estimated
03:31PM 36.3453 -6.0335 204° Southwest  Level Estimated
03:32PM 36.2574 -6.0812 204° Southwest  Level Estimated
03:33PM 36.1695 -6.1288 204° Southwest  Level Estimated
03:34PM 36.0816 -6.1763 204° Southwest  Level Estimated
03:35PM 35.9936 -6.2237 204° Southwest  Level Estimated
03:36PM 35.9057 -6.2710 203° Southwest  Level Estimated
03:37PM 35.8177 -6.3181 203° Southwest  Level Estimated
03:38PM 35.7297 -6.3652 203° Southwest  Level Estimated
03:39PM 35.6417 -6.4122 203° Southwest  Level Estimated
03:40PM 35.5536 -6.4590 203° Southwest  Level Estimated
03:41PM 35.4655 -6.5058 203° Southwest  Level Estimated
03:42PM 35.3775 -6.5525 203° Southwest  Level Estimated
03:43PM 35.2894 -6.5990 203° Southwest  Level Estimated
03:44PM 35.2013 -6.6455 203° Southwest  Level Estimated
03:45PM 35.1131 -6.6918 203° Southwest  Level Estimated
03:46PM 35.0250 -6.7381 203° Southwest  Level Estimated
03:47PM 34.9368 -6.7842 203° Southwest  Level Estimated
03:48PM 34.8486 -6.8303 203° Southwest  Level Estimated
03:49PM 34.7604 -6.8762 203° Southwest  Level Estimated
03:50PM 34.6722 -6.9221 203° Southwest  Level Estimated
03:51PM 34.5840 -6.9679 203° Southwest  Level Estimated
03:52PM 34.4957 -7.0135 203° Southwest  Level Estimated
03:53PM 34.4075 -7.0591 203° Southwest  Level Estimated
03:54PM 34.3192 -7.1045 203° Southwest  Level Estimated
03:55PM 34.2309 -7.1499 203° Southwest  Level Estimated
03:56PM 34.1426 -7.1952 203° Southwest  Level Estimated
03:57PM 34.0542 -7.2404 203° Southwest  Level Estimated
03:58PM 33.9659 -7.2855 203° Southwest  Level Estimated
03:59PM 33.8775 -7.3305 203° Southwest  Level Estimated
04:00PM 33.7891 -7.3754 203° Southwest  Level Estimated
04:01PM 33.7007 -7.4202 203° Southwest  Level Estimated
04:02PM 33.6123 -7.4649 203° Southwest  Level Estimated
04:03PM 33.5239 -7.5095 203° Southwest  Level Estimated
04:04PM 33.4354 -7.5541 203° Southwest  Level Estimated
04:05PM 33.3470 -7.5985 23° Northeast  Level Estimated
04:06PM 33.4354 -7.5541 203° Southwest  Level Estimated
04:07PM 33.3470 -7.5985 23° Northeast  Level Estimated
04:08PM 33.4354 -7.5541 203° Southwest  Level Estimated
04:09PM 33.3470 -7.5985 23° Northeast  Level Estimated
04:10PM 33.4354 -7.5541 203° Southwest  Level Estimated
04:11PM 33.3470 -7.5985 23° Northeast  Level Estimated
04:12PM 33.4354 -7.5541 203° Southwest  Level Estimated
04:13PM 33.3470 -7.5985 203° Southwest  Level Estimated